Time;durP1;ratioP1;P1;durP2;ratioP2;P2;SDS_P1;SDS_P2;PMS_P1;PMS_P2;Temp;Humidity;BMP_temperature;BMP_pressure;BME280_temperature;BME280_humidity;BME280_pressure;Samples;Min_cycle;Max_cycle;Signal;HPM_P1;HPM_P2
2023/10/07 04:01:42;;;;;;;25.33;4.13;;;13.10;99.90;;;;;;5346889;23;20479;-75
2023/10/07 04:04:12;;;;;;;2.30;1.63;;;12.90;99.90;;;;;;4972667;28;20445;-74
2023/10/07 04:06:41;;;;;;;3.33;2.00;;;12.90;99.90;;;;;;4972248;28;20442;-75
2023/10/07 04:09:11;;;;;;;1.33;0.57;;;12.70;99.90;;;;;;4972597;28;20448;-76
2023/10/07 04:11:48;;;;;;;0.70;0.50;;;12.60;99.90;;;;;;4972293;28;20471;-75
2023/10/07 04:14:27;;;;;;;6.20;2.10;;;12.70;99.90;;;;;;4972747;28;20800;-75
2023/10/07 04:16:59;;;;;;;2.50;0.90;;;12.80;99.90;;;;;;4965857;28;20509;-74
2023/10/07 04:19:38;;;;;;;0.60;0.13;;;12.80;99.90;;;;;;4972598;28;20480;-74
2023/10/07 04:22:09;;;;;;;2.00;1.90;;;12.60;99.90;;;;;;4972504;28;20468;-75
2023/10/07 04:24:43;;;;;;;0.80;0.63;;;12.60;99.90;;;;;;4972911;28;20454;-75
2023/10/07 04:27:18;;;;;;;2.70;0.33;;;12.40;99.90;;;;;;4972243;28;20455;-75
2023/10/07 04:29:47;;;;;;;0.60;0.20;;;12.50;99.90;;;;;;4964866;28;20443;-75
2023/10/07 04:32:20;;;;;;;0.60;0.20;;;12.30;99.90;;;;;;5019214;23;20501;-69
2023/10/07 04:35:06;;;;;;;0.60;0.10;;;12.40;99.90;;;;;;4973480;28;20452;-68
2023/10/07 04:37:51;;;;;;;0.60;0.30;;;12.40;99.90;;;;;;4980556;28;20447;-68
2023/10/07 04:41:30;;;;;;;0.70;0.47;;;12.30;99.90;;;;;;4972203;28;20495;-70
2023/10/07 04:43:36;;;;;;;0.60;0.10;;;12.30;99.90;;;;;;4949889;28;20891;-69
2023/10/07 04:46:21;;;;;;;0.60;0.10;;;12.40;99.90;;;;;;4946020;28;20471;-69
2023/10/07 04:48:55;;;;;;;0.60;0.10;;;12.60;99.90;;;;;;4958330;28;20483;-69
2023/10/07 04:51:46;;;;;;;1.13;1.03;;;12.70;99.90;;;;;;4964724;28;20475;-69
2023/10/07 04:54:20;;;;;;;0.70;0.40;;;12.60;99.90;;;;;;4950315;29;20959;-70
2023/10/07 04:56:53;;;;;;;2.57;0.70;;;12.70;99.90;;;;;;4942438;29;20444;-70
2023/10/07 04:59:21;;;;;;;4.43;2.03;;;12.70;99.90;;;;;;4935078;29;20461;-69
2023/10/07 05:01:56;;;;;;;0.60;0.10;;;12.70;99.90;;;;;;4947774;28;20599;-69
2023/10/07 05:04:25;;;;;;;0.60;0.10;;;12.70;99.90;;;;;;4955082;29;20453;-70
2023/10/07 05:06:53;;;;;;;1.57;1.47;;;12.70;99.90;;;;;;4950700;28;20529;-67
2023/10/07 05:09:21;;;;;;;3.23;1.90;;;12.60;99.90;;;;;;4950384;29;20456;-68
2023/10/07 05:11:49;;;;;;;1.10;0.50;;;12.40;99.90;;;;;;4953843;28;20488;-69
2023/10/07 05:14:17;;;;;;;1.57;1.03;;;12.40;99.90;;;;;;4952627;28;20448;-68
2023/10/07 05:16:47;;;;;;;5.23;1.60;;;12.30;99.90;;;;;;4952336;28;20449;-69
2023/10/07 05:19:19;;;;;;;6.40;2.00;;;12.20;99.90;;;;;;4962950;28;20539;-69
2023/10/07 05:21:59;;;;;;;2.53;2.33;;;11.90;99.90;;;;;;4959717;29;21002;-68
2023/10/07 05:24:29;;;;;;;1.23;1.13;;;11.90;99.90;;;;;;4957704;29;20466;-70
2023/10/07 05:26:59;;;;;;;2.80;1.13;;;12.00;99.90;;;;;;4938803;29;20886;-69
2023/10/07 05:29:28;;;;;;;4.20;2.13;;;12.00;99.90;;;;;;4946263;29;20461;-68
2023/10/07 05:31:57;;;;;;;1.17;0.93;;;12.00;99.90;;;;;;4950501;28;20525;-68
2023/10/07 05:34:28;;;;;;;1.13;0.73;;;12.00;99.90;;;;;;4956322;28;20460;-68
2023/10/07 05:37:04;;;;;;;5.30;2.67;;;12.00;99.90;;;;;;4957162;29;20503;-71
2023/10/07 05:39:32;;;;;;;2.60;1.80;;;12.10;99.90;;;;;;4949413;29;20456;-68
2023/10/07 05:42:05;;;;;;;4.53;2.20;;;;;;;;;;4944425;29;20485;-69
2023/10/07 05:44:35;;;;;;;13.23;6.70;;;12.20;99.90;;;;;;4954227;29;20491;-68
2023/10/07 05:47:03;;;;;;;1.97;1.70;;;12.20;99.90;;;;;;4951143;28;20466;-69
2023/10/07 05:49:32;;;;;;;6.77;3.77;;;12.20;99.90;;;;;;4969122;28;20452;-70
2023/10/07 05:52:01;;;;;;;0.60;0.10;;;12.10;99.90;;;;;;4937612;29;20880;-71
2023/10/07 05:54:31;;;;;;;2.20;0.80;;;12.00;99.90;;;;;;4938031;29;20540;-70
2023/10/07 05:56:59;;;;;;;6.03;2.87;;;12.10;99.90;;;;;;4949592;29;20453;-69
2023/10/07 05:59:33;;;;;;;0.60;0.10;;;;;;;;;;4956080;29;20451;-69
2023/10/07 06:02:05;;;;;;;4.00;1.63;;;12.20;99.90;;;;;;4946894;29;20500;-69
2023/10/07 06:04:35;;;;;;;0.67;0.60;;;12.20;99.90;;;;;;4954982;29;20452;-70
2023/10/07 06:07:06;;;;;;;1.70;1.00;;;12.20;99.90;;;;;;4952190;29;20480;-70
2023/10/07 06:09:36;;;;;;;0.60;0.10;;;12.20;99.90;;;;;;4945967;29;20956;-69
2023/10/07 06:12:07;;;;;;;0.60;0.20;;;12.30;99.90;;;;;;4956506;29;20837;-69
2023/10/07 06:14:35;;;;;;;0.97;0.60;;;12.30;99.90;;;;;;4954025;28;20453;-70
2023/10/07 06:17:06;;;;;;;0.70;0.30;;;12.40;99.90;;;;;;4939845;29;20952;-70
2023/10/07 06:19:34;;;;;;;0.60;0.10;;;12.40;99.90;;;;;;4954592;28;20560;-70
2023/10/07 06:22:11;;;;;;;3.87;2.03;;;12.40;99.90;;;;;;4956110;28;20496;-70
2023/10/07 06:24:41;;;;;;;0.60;0.30;;;12.30;99.90;;;;;;4958195;28;20818;-68
2023/10/07 06:27:12;;;;;;;3.23;1.57;;;12.30;99.90;;;;;;4956884;28;20529;-69
2023/10/07 06:29:43;;;;;;;8.57;3.20;;;12.30;99.90;;;;;;4950507;28;20465;-71
2023/10/07 06:32:22;;;;;;;1.00;0.67;;;12.30;99.90;;;;;;4948061;28;20486;-69
2023/10/07 06:34:51;;;;;;;3.47;1.60;;;12.30;99.90;;;;;;4956216;28;20456;-71
2023/10/07 06:37:28;;;;;;;4.13;2.40;;;12.30;99.90;;;;;;4946763;28;20477;-70
2023/10/07 06:39:58;;;;;;;0.90;0.77;;;12.30;99.90;;;;;;4956526;28;20523;-70
2023/10/07 06:42:27;;;;;;;2.50;1.80;;;12.40;99.90;;;;;;4947244;29;20489;-71
2023/10/07 06:44:56;;;;;;;0.60;0.20;;;12.40;99.90;;;;;;4954615;29;20471;-69
2023/10/07 06:47:29;;;;;;;1.77;1.07;;;12.40;99.90;;;;;;4946948;29;20552;-71
2023/10/07 06:49:58;;;;;;;2.77;2.43;;;10.00;99.90;;;;;;4944943;29;20454;-70
2023/10/07 06:52:28;;;;;;;1.17;0.80;;;12.50;99.90;;;;;;4938071;29;20581;-71
2023/10/07 06:54:56;;;;;;;2.00;1.47;;;12.60;99.90;;;;;;4945737;29;20533;-70
2023/10/07 06:57:36;;;;;;;1.17;0.80;;;13.70;99.90;;;;;;4946184;29;20452;-70
2023/10/07 07:00:13;;;;;;;1.67;1.27;;;12.60;99.90;;;;;;4951188;29;20448;-71
2023/10/07 07:02:43;;;;;;;1.57;1.40;;;12.70;99.90;;;;;;4947113;29;20495;-69
2023/10/07 07:05:16;;;;;;;3.40;1.90;;;12.80;99.90;;;;;;4949625;29;20498;-70
2023/10/07 07:07:45;;;;;;;2.43;1.53;;;12.90;99.90;;;;;;4946825;29;20464;-69
2023/10/07 07:10:16;;;;;;;2.60;0.70;;;;;;;;;;4948174;29;20949;-69
2023/10/07 07:12:45;;;;;;;1.10;0.70;;;12.90;99.90;;;;;;4945066;29;21003;-72
2023/10/07 07:15:26;;;;;;;3.17;2.20;;;12.90;99.90;;;;;;4948788;29;20458;-71
2023/10/07 07:18:04;;;;;;;0.60;0.23;;;12.90;99.90;;;;;;4947146;29;20832;-71
2023/10/07 07:20:48;;;;;;;0.80;0.70;;;12.90;99.90;;;;;;4942809;29;21002;-71
2023/10/07 07:23:21;;;;;;;0.70;0.43;;;13.00;99.90;;;;;;4952835;29;20461;-70
2023/10/07 07:25:51;;;;;;;0.60;0.40;;;13.00;99.90;;;;;;4952131;28;20461;-72
2023/10/07 07:28:18;;;;;;;1.17;0.70;;;12.90;99.90;;;;;;4951106;29;20464;-70
2023/10/07 07:30:46;;;;;;;4.23;1.80;;;12.80;99.90;;;;;;4955873;28;20485;-72
2023/10/07 07:33:15;;;;;;;5.13;2.30;;;12.80;99.90;;;;;;4957705;28;20923;-72
2023/10/07 07:35:44;;;;;;;2.07;1.10;;;12.80;99.90;;;;;;4964077;28;20580;-72
2023/10/07 07:38:25;;;;;;;6.57;2.60;;;12.90;99.90;;;;;;4936133;29;20481;-72
2023/10/07 07:41:05;;;;;;;0.70;0.40;;;12.90;99.90;;;;;;4934902;29;20449;-72
2023/10/07 07:43:35;;;;;;;3.07;2.67;;;12.90;99.90;;;;;;4935076;29;20453;-71
2023/10/07 07:46:12;;;;;;;1.27;0.63;;;13.00;99.90;;;;;;4941812;29;20451;-71
2023/10/07 07:48:40;;;;;;;0.60;0.30;;;13.00;99.90;;;;;;4939943;29;20942;-72
2023/10/07 07:51:09;;;;;;;0.60;0.27;;;13.20;99.90;;;;;;4935101;29;20537;-71
2023/10/07 07:53:39;;;;;;;0.60;0.20;;;13.20;99.90;;;;;;4943273;29;20457;-71
2023/10/07 07:56:12;;;;;;;1.97;0.73;;;13.20;99.90;;;;;;4956956;29;20998;-71
2023/10/07 07:58:41;;;;;;;2.80;2.60;;;13.30;99.90;;;;;;4954918;29;21204;-71
2023/10/07 08:01:15;;;;;;;0.60;0.30;;;13.10;99.90;;;;;;4965294;28;20454;-68
2023/10/07 08:03:43;;;;;;;0.80;0.63;;;13.10;99.90;;;;;;4952805;28;20525;-72
2023/10/07 08:06:19;;;;;;;0.77;0.60;;;13.30;99.90;;;;;;4934303;29;20451;-70
2023/10/07 08:08:49;;;;;;;1.50;0.53;;;13.40;99.90;;;;;;4934463;29;20454;-71
2023/10/07 08:11:18;;;;;;;0.60;0.40;;;13.60;99.90;;;;;;4934184;29;20467;-71
2023/10/07 08:13:49;;;;;;;0.60;0.10;;;13.60;99.90;;;;;;4950710;28;20469;-71
2023/10/07 08:16:18;;;;;;;3.07;2.13;;;13.70;99.90;;;;;;4954665;28;20456;-71
2023/10/07 08:18:48;;;;;;;2.00;1.23;;;13.70;99.90;;;;;;4953143;28;20537;-72
2023/10/07 08:21:16;;;;;;;0.90;0.70;;;13.70;99.90;;;;;;4953041;28;20470;-71
2023/10/07 08:23:46;;;;;;;0.60;0.20;;;13.70;99.90;;;;;;4945541;28;20511;-71
2023/10/07 08:26:20;;;;;;;4.47;3.93;;;13.70;99.90;;;;;;4967115;28;20449;-71
2023/10/07 08:29:00;;;;;;;3.17;1.60;;;13.70;99.90;;;;;;4956868;28;20448;-68
2023/10/07 08:31:38;;;;;;;1.30;1.20;;;13.80;99.90;;;;;;4957628;28;20753;-72
2023/10/07 08:34:10;;;;;;;10.30;1.47;;;13.80;99.90;;;;;;4951461;28;20491;-73
2023/10/07 08:36:43;;;;;;;2.07;0.93;;;13.80;99.90;;;;;;4964824;28;20453;-74
2023/10/07 08:39:12;;;;;;;0.67;0.37;;;13.90;99.90;;;;;;4952976;28;20500;-73
2023/10/07 08:41:41;;;;;;;3.47;1.77;;;13.90;99.90;;;;;;4953824;28;20486;-73
2023/10/07 08:44:14;;;;;;;0.60;0.17;;;13.90;99.90;;;;;;4951206;28;20477;-73
2023/10/07 08:46:48;;;;;;;3.97;1.70;;;13.80;99.90;;;;;;4951347;28;20956;-73
2023/10/07 08:49:24;;;;;;;1.77;1.53;;;14.00;99.90;;;;;;4954327;28;20820;-72
2023/10/07 08:51:54;;;;;;;1.10;0.73;;;14.00;99.90;;;;;;4953487;28;21200;-72
2023/10/07 08:54:27;;;;;;;0.60;0.40;;;13.90;99.90;;;;;;4950644;28;20538;-72
2023/10/07 08:56:57;;;;;;;4.10;1.50;;;14.00;99.90;;;;;;4953304;28;20462;-72
2023/10/07 08:59:30;;;;;;;0.93;0.77;;;14.10;99.90;;;;;;4968092;28;20956;-73
2023/10/07 09:02:00;;;;;;;4.10;1.70;;;14.20;99.90;;;;;;4960721;28;21121;-72
2023/10/07 09:04:31;;;;;;;2.00;1.90;;;14.20;99.90;;;;;;4958990;28;20470;-72
2023/10/07 09:07:00;;;;;;;0.60;0.10;;;14.40;99.90;;;;;;4948815;28;20439;-71
2023/10/07 09:09:33;;;;;;;0.93;0.83;;;14.40;99.90;;;;;;4952697;28;20447;-73
2023/10/07 09:12:08;;;;;;;3.60;2.87;;;14.40;99.90;;;;;;4948448;28;20808;-73
2023/10/07 09:14:45;;;;;;;0.90;0.33;;;14.40;99.90;;;;;;4955926;28;20456;-72
2023/10/07 09:17:13;;;;;;;3.67;3.33;;;14.50;99.90;;;;;;4951681;29;20501;-73
2023/10/07 09:19:43;;;;;;;1.90;0.53;;;14.80;99.90;;;;;;4953211;28;20472;-72
2023/10/07 09:22:21;;;;;;;0.60;0.20;;;14.50;99.90;;;;;;4955907;28;20848;-72
2023/10/07 09:24:49;;;;;;;0.77;0.47;;;14.60;99.90;;;;;;4954308;28;20529;-73
2023/10/07 09:27:36;;;;;;;0.60;0.10;;;14.60;99.90;;;;;;4957129;28;20886;-72
2023/10/07 09:30:34;;;;;;;0.60;0.10;;;14.70;99.90;;;;;;4945791;28;20937;-71
2023/10/07 09:32:57;;;;;;;0.60;0.23;;;14.70;99.90;;;;;;4954371;28;20540;-73
2023/10/07 09:35:26;;;;;;;0.73;0.73;;;14.80;99.90;;;;;;4947584;28;20454;-72
2023/10/07 09:37:55;;;;;;;0.60;0.10;;;14.80;99.90;;;;;;4946723;28;20467;-73
2023/10/07 09:43:07;;;;;;;3.00;2.60;;;15.00;99.90;;;;;;4951558;28;20903;-72
2023/10/07 09:45:38;;;;;;;2.70;2.50;;;15.10;99.90;;;;;;4950992;28;20451;-73
2023/10/07 09:48:07;;;;;;;0.70;0.50;;;15.20;99.90;;;;;;4945440;28;20453;-74
2023/10/07 09:50:38;;;;;;;0.80;0.60;;;15.30;99.90;;;;;;4956958;28;20714;-72
2023/10/07 09:53:27;;;;;;;1.07;0.47;;;15.30;99.90;;;;;;4951322;28;20591;-73
2023/10/07 09:56:11;;;;;;;0.70;0.40;;;15.20;99.90;;;;;;4955560;28;20458;-73
2023/10/07 09:58:48;;;;;;;0.60;0.10;;;15.30;99.90;;;;;;4955685;28;20447;-73
2023/10/07 10:01:37;;;;;;;1.47;0.60;;;15.20;99.90;;;;;;4956091;28;20470;-72
2023/10/07 10:04:27;;;;;;;0.60;0.20;;;15.30;99.90;;;;;;4955578;28;20485;-71
2023/10/07 10:07:12;;;;;;;0.80;0.30;;;15.40;99.90;;;;;;4955926;28;20903;-72
2023/10/07 10:10:00;;;;;;;1.00;0.60;;;15.50;99.90;;;;;;4954059;28;20573;-73
2023/10/07 10:12:49;;;;;;;2.50;1.40;;;15.60;99.90;;;;;;4951645;28;20462;-72
2023/10/07 10:18:06;;;;;;;5.17;2.00;;;15.50;99.90;;;;;;4948841;28;20438;-74
2023/10/07 10:20:43;;;;;;;3.50;1.70;;;15.50;99.90;;;;;;4958816;28;20944;-71
2023/10/07 10:23:18;;;;;;;2.70;2.50;;;15.40;99.90;;;;;;4963646;28;20501;-73
2023/10/07 10:25:49;;;;;;;6.10;4.47;;;15.60;99.90;;;;;;4956364;28;20541;-74
2023/10/07 10:28:21;;;;;;;9.67;0.97;;;15.80;99.90;;;;;;4957120;28;20450;-74
2023/10/07 10:30:53;;;;;;;8.43;4.10;;;15.90;99.90;;;;;;4970142;28;20961;-72
2023/10/07 10:33:25;;;;;;;0.97;0.53;;;16.10;99.90;;;;;;5008732;23;20500;-74
2023/10/07 10:35:57;;;;;;;0.93;0.67;;;16.10;99.90;;;;;;4973550;28;20449;-76
2023/10/07 10:38:36;;;;;;;0.77;0.60;;;16.20;99.90;;;;;;4975810;28;20438;-75
2023/10/07 10:41:04;;;;;;;0.60;0.10;;;16.30;99.90;;;;;;4978812;28;20983;-74
2023/10/07 10:43:32;;;;;;;0.60;0.10;;;16.40;99.90;;;;;;4979319;28;20489;-75
2023/10/07 10:46:02;;;;;;;2.33;1.67;;;16.60;99.90;;;;;;4976102;28;20462;-75
2023/10/07 10:48:31;;;;;;;2.40;0.47;;;16.70;99.90;;;;;;4969236;28;20455;-76
2023/10/07 10:50:59;;;;;;;0.60;0.20;;;16.70;99.90;;;;;;4982730;28;20970;-75
2023/10/07 10:53:27;;;;;;;3.27;0.97;;;16.60;99.90;;;;;;4974650;28;20468;-76
2023/10/07 10:55:56;;;;;;;0.60;0.10;;;16.70;99.90;;;;;;4984943;28;20459;-75
2023/10/07 10:58:24;;;;;;;0.60;0.10;;;16.70;99.90;;;;;;4980769;28;20501;-76
2023/10/07 11:00:52;;;;;;;0.70;0.47;;;16.70;99.90;;;;;;4976083;28;20498;-75
2023/10/07 11:03:21;;;;;;;0.60;0.23;;;16.80;99.90;;;;;;4982927;28;20510;-74
2023/10/07 11:05:52;;;;;;;0.60;0.20;;;16.90;99.90;;;;;;4978070;28;20446;-75
2023/10/07 11:08:23;;;;;;;4.90;3.23;;;17.00;99.90;;;;;;4992150;28;20450;-76
2023/10/07 11:10:53;;;;;;;15.00;9.30;;;17.00;99.90;;;;;;4984847;28;20480;-75
2023/10/07 11:13:21;;;;;;;2.30;0.77;;;17.00;99.90;;;;;;4987786;28;20468;-75
2023/10/07 11:15:58;;;;;;;5.67;1.40;;;17.00;99.90;;;;;;4990168;28;20449;-75
2023/10/07 11:18:30;;;;;;;0.60;0.20;;;17.10;99.90;;;;;;4983869;28;20527;-76
2023/10/07 11:21:02;;;;;;;0.60;0.20;;;17.20;99.90;;;;;;4962727;28;20457;-75
2023/10/07 11:23:30;;;;;;;0.60;0.10;;;17.30;99.90;;;;;;4975255;28;20976;-76
2023/10/07 11:25:58;;;;;;;0.60;0.10;;;17.30;99.90;;;;;;4976835;28;20485;-79
2023/10/07 11:28:33;;;;;;;0.60;0.20;;;17.30;99.90;;;;;;4988825;28;20933;-76
2023/10/07 11:31:01;;;;;;;1.20;0.83;;;17.30;99.90;;;;;;4977657;28;21055;-76
2023/10/07 11:33:29;;;;;;;0.80;0.77;;;17.40;99.90;;;;;;4979100;28;20493;-77
2023/10/07 11:35:59;;;;;;;1.73;0.90;;;17.50;99.90;;;;;;4973781;28;20826;-77
2023/10/07 11:38:29;;;;;;;1.83;1.73;;;17.60;99.90;;;;;;4975147;28;20450;-75
2023/10/07 11:40:57;;;;;;;0.60;0.20;;;17.70;99.90;;;;;;4975896;28;20824;-75
2023/10/07 11:43:25;;;;;;;2.73;0.47;;;17.70;99.90;;;;;;4983330;28;20493;-75
2023/10/07 11:45:53;;;;;;;0.60;0.30;;;17.80;99.90;;;;;;4978067;28;20493;-76
2023/10/07 11:48:22;;;;;;;0.60;0.20;;;17.80;99.90;;;;;;4990389;28;20453;-77
2023/10/07 11:50:50;;;;;;;1.73;0.97;;;17.90;99.90;;;;;;4982080;28;20540;-77
2023/10/07 11:53:19;;;;;;;0.70;0.30;;;18.00;99.90;;;;;;4975332;28;20568;-77
2023/10/07 11:55:49;;;;;;;0.77;0.37;;;18.10;99.90;;;;;;4973858;28;20500;-76
2023/10/07 11:58:17;;;;;;;1.23;0.87;;;18.20;99.90;;;;;;4973921;28;20453;-76
2023/10/07 12:00:46;;;;;;;0.70;0.20;;;18.30;99.90;;;;;;4974226;28;20470;-76
2023/10/07 12:03:14;;;;;;;0.83;0.20;;;18.30;99.90;;;;;;4973971;28;20490;-75
2023/10/07 12:05:43;;;;;;;1.47;1.13;;;18.30;99.90;;;;;;4974144;28;20462;-75
2023/10/07 12:08:12;;;;;;;2.63;0.73;;;18.50;99.90;;;;;;4973679;28;20489;-76
2023/10/07 12:10:40;;;;;;;0.60;0.10;;;18.60;99.90;;;;;;4985823;28;20476;-76
2023/10/07 12:13:11;;;;;;;0.70;0.50;;;18.70;99.90;;;;;;4989611;28;20465;-74
2023/10/07 12:15:42;;;;;;;1.03;1.03;;;18.70;99.90;;;;;;4989789;28;20445;-76
2023/10/07 12:18:30;;;;;;;1.10;0.50;;;18.80;99.90;;;;;;4971312;28;20929;-75
2023/10/07 12:21:00;;;;;;;1.53;0.43;;;18.80;99.90;;;;;;4983868;28;20459;-75
2023/10/07 12:23:29;;;;;;;0.60;0.10;;;18.80;99.90;;;;;;4981019;28;20881;-76
2023/10/07 12:25:57;;;;;;;1.00;0.63;;;18.80;99.90;;;;;;4983264;28;20456;-76
2023/10/07 12:28:27;;;;;;;0.70;0.20;;;19.00;99.90;;;;;;4969011;28;20445;-77
2023/10/07 12:30:56;;;;;;;0.60;0.20;;;19.00;99.90;;;;;;4978092;28;20722;-76
2023/10/07 12:33:24;;;;;;;1.27;1.17;;;19.10;99.90;;;;;;4979321;28;20496;-78
2023/10/07 12:36:10;;;;;;;1.10;0.90;;;19.10;99.90;;;;;;4988611;28;20482;-75
2023/10/07 12:38:38;;;;;;;1.53;1.07;;;19.20;99.90;;;;;;4984664;28;20853;-75
2023/10/07 12:41:08;;;;;;;1.90;1.23;;;19.20;99.90;;;;;;4974229;28;20890;-76
2023/10/07 12:43:38;;;;;;;0.70;0.30;;;19.30;99.90;;;;;;4968980;28;20462;-75
2023/10/07 12:46:09;;;;;;;0.60;0.17;;;19.40;99.90;;;;;;4978690;28;20443;-75
2023/10/07 12:48:40;;;;;;;0.70;0.30;;;19.40;99.90;;;;;;4978382;28;20963;-75
2023/10/07 12:51:08;;;;;;;0.83;0.50;;;19.60;99.90;;;;;;4972687;28;20948;-75
2023/10/07 12:53:36;;;;;;;2.83;1.93;;;19.60;99.90;;;;;;4972554;28;20457;-74
2023/10/07 12:56:13;;;;;;;0.90;0.43;;;19.60;99.90;;;;;;4963554;28;20971;-75
2023/10/07 12:58:45;;;;;;;0.60;0.13;;;19.70;99.90;;;;;;4970942;28;20459;-75
2023/10/07 13:01:14;;;;;;;1.57;0.97;;;19.80;99.90;;;;;;4961062;28;20474;-75
2023/10/07 13:03:43;;;;;;;0.80;0.63;;;19.80;99.90;;;;;;4974172;28;20556;-75
2023/10/07 13:06:14;;;;;;;0.80;0.20;;;19.80;99.90;;;;;;4975349;28;20450;-75
2023/10/07 13:08:43;;;;;;;0.60;0.10;;;19.80;99.90;;;;;;4987233;28;20445;-75
2023/10/07 13:11:13;;;;;;;0.60;0.20;;;19.90;99.90;;;;;;4978632;28;20449;-75
2023/10/07 13:13:45;;;;;;;3.13;1.90;;;19.90;99.90;;;;;;4978707;28;20477;-76
2023/10/07 13:16:14;;;;;;;0.60;0.10;;;19.90;99.90;;;;;;4977158;28;20470;-76
2023/10/07 13:18:44;;;;;;;0.60;0.10;;;20.00;99.90;;;;;;4985299;28;21205;-75
2023/10/07 13:21:16;;;;;;;3.90;2.53;;;;;;;;;;4974247;28;20443;-75
2023/10/07 13:23:46;;;;;;;0.60;0.20;;;20.00;99.90;;;;;;4970853;28;20876;-76
2023/10/07 13:26:14;;;;;;;0.80;0.40;;;20.10;99.90;;;;;;4977988;28;20450;-75
2023/10/07 13:28:48;;;;;;;0.97;0.80;;;20.00;99.90;;;;;;4972917;28;20570;-77
2023/10/07 13:31:17;;;;;;;0.60;0.17;;;20.00;99.90;;;;;;4974008;28;20469;-75
2023/10/07 13:33:46;;;;;;;3.27;1.50;;;20.00;99.90;;;;;;4970776;28;20873;-75
2023/10/07 13:36:14;;;;;;;0.70;0.40;;;20.00;99.90;;;;;;4986250;28;20438;-76
2023/10/07 13:38:42;;;;;;;1.53;1.13;;;20.00;99.90;;;;;;4978004;28;20870;-76
2023/10/07 13:41:17;;;;;;;0.60;0.23;;;20.30;99.90;;;;;;4958712;28;20463;-75
2023/10/07 13:43:46;;;;;;;0.60;0.40;;;20.40;99.90;;;;;;4985009;28;20442;-75
2023/10/07 13:46:15;;;;;;;2.90;1.50;;;20.40;99.90;;;;;;4994435;28;21067;-75
2023/10/07 13:48:43;;;;;;;2.03;1.73;;;20.40;99.90;;;;;;4971329;28;20823;-77
2023/10/07 13:51:11;;;;;;;3.80;1.00;;;20.50;99.90;;;;;;4975118;28;20795;-76
2023/10/07 13:53:51;;;;;;;1.63;0.97;;;20.50;99.90;;;;;;4999497;28;20869;-75
2023/10/07 13:56:33;;;;;;;1.57;0.73;;;20.60;99.90;;;;;;4975504;28;20430;-75
2023/10/07 13:59:05;;;;;;;3.50;1.00;;;20.50;99.90;;;;;;4984529;28;20479;-76
2023/10/07 14:01:33;;;;;;;2.27;0.87;;;20.60;99.90;;;;;;4979011;28;20475;-75
2023/10/07 14:04:03;;;;;;;0.70;0.37;;;20.60;99.90;;;;;;4976856;28;20449;-75
2023/10/07 14:06:33;;;;;;;1.37;0.97;;;20.70;99.90;;;;;;4978235;28;20492;-75
2023/10/07 14:09:01;;;;;;;1.80;0.97;;;20.40;99.90;;;;;;4976354;28;20537;-75
2023/10/07 14:11:31;;;;;;;2.50;1.60;;;20.60;99.90;;;;;;4975973;28;20452;-75
2023/10/07 14:14:00;;;;;;;1.17;0.70;;;20.60;99.90;;;;;;4984891;28;20545;-74
2023/10/07 14:16:29;;;;;;;0.73;0.60;;;20.60;99.90;;;;;;4973201;28;20835;-75
2023/10/07 14:18:57;;;;;;;0.60;0.20;;;20.60;99.90;;;;;;4969788;28;20500;-76
2023/10/07 14:21:25;;;;;;;0.67;0.30;;;20.70;99.90;;;;;;4970239;28;20447;-75
2023/10/07 14:23:53;;;;;;;0.60;0.20;;;20.70;99.90;;;;;;4979577;28;20452;-73
2023/10/07 14:26:22;;;;;;;0.90;0.67;;;20.60;99.90;;;;;;4966297;28;20540;-75
2023/10/07 14:28:51;;;;;;;3.20;0.37;;;20.40;99.90;;;;;;4974727;28;21004;-75
2023/10/07 14:31:18;;;;;;;1.17;1.07;;;20.40;99.90;;;;;;4970655;28;20855;-75
2023/10/07 14:33:48;;;;;;;1.00;0.27;;;20.40;99.90;;;;;;4967609;28;20559;-75
2023/10/07 14:36:21;;;;;;;0.70;0.40;;;20.50;99.90;;;;;;4990022;28;20848;-76
2023/10/07 14:38:49;;;;;;;1.30;0.87;;;20.50;99.90;;;;;;4982366;28;20442;-76
2023/10/07 14:41:18;;;;;;;1.03;0.63;;;20.50;99.90;;;;;;4965283;28;20451;-75
2023/10/07 14:43:46;;;;;;;0.80;0.40;;;20.50;99.90;;;;;;4963754;28;20550;-74
2023/10/07 14:46:14;;;;;;;0.60;0.17;;;20.50;99.90;;;;;;4978855;28;20574;-75
2023/10/07 14:48:45;;;;;;;1.57;0.87;;;20.50;99.90;;;;;;4992467;28;20474;-75
2023/10/07 14:51:17;;;;;;;5.77;0.70;;;20.80;99.90;;;;;;4976877;28;20457;-75
2023/10/07 14:53:46;;;;;;;1.50;0.70;;;20.80;99.90;;;;;;4967435;28;20460;-74
2023/10/07 14:56:17;;;;;;;0.70;0.30;;;20.70;99.90;;;;;;4981533;28;20450;-75
2023/10/07 14:58:47;;;;;;;0.90;0.30;;;20.70;99.90;;;;;;4979621;28;20503;-74
2023/10/07 15:01:21;;;;;;;0.70;0.30;;;20.80;99.90;;;;;;4972180;28;20510;-75
2023/10/07 15:03:51;;;;;;;0.60;0.23;;;20.80;99.90;;;;;;4974874;28;20453;-75
2023/10/07 15:06:22;;;;;;;0.60;0.10;;;20.90;99.90;;;;;;4971550;28;20548;-76
2023/10/07 15:08:50;;;;;;;3.30;1.77;;;21.00;99.90;;;;;;4978861;28;20443;-76
2023/10/07 15:11:20;;;;;;;0.80;0.60;;;21.10;99.60;;;;;;4978267;28;20483;-75
2023/10/07 15:13:49;;;;;;;3.00;0.40;;;21.10;99.90;;;;;;4977906;28;20478;-76
2023/10/07 15:16:18;;;;;;;0.90;0.37;;;;;;;;;;4977423;28;20510;-76
2023/10/07 15:18:49;;;;;;;1.27;1.07;;;21.00;97.40;;;;;;4970332;28;20452;-75
2023/10/07 15:21:17;;;;;;;0.70;0.30;;;21.00;98.60;;;;;;4994737;28;20511;-76
2023/10/07 15:23:47;;;;;;;2.90;2.23;;;21.00;99.90;;;;;;4978394;28;20452;-76
2023/10/07 15:26:17;;;;;;;0.70;0.33;;;21.10;99.90;;;;;;4975295;28;20570;-75
2023/10/07 15:28:47;;;;;;;0.80;0.30;;;21.20;99.90;;;;;;4973359;28;20446;-75
2023/10/07 15:31:21;;;;;;;0.60;0.10;;;21.10;97.60;;;;;;4977853;28;21693;-76
2023/10/07 15:33:54;;;;;;;0.60;0.10;;;21.10;99.90;;;;;;4972568;28;20528;-75
2023/10/07 15:36:22;;;;;;;2.80;0.60;;;21.10;99.90;;;;;;4974355;28;20501;-76
2023/10/07 15:38:51;;;;;;;2.10;0.40;;;21.20;99.90;;;;;;4972840;28;20457;-75
2023/10/07 15:41:20;;;;;;;0.70;0.30;;;21.00;96.70;;;;;;4973981;28;20442;-76
2023/10/07 15:43:48;;;;;;;2.00;1.90;;;21.00;99.90;;;;;;4974078;28;20967;-75
2023/10/07 15:46:17;;;;;;;0.60;0.20;;;21.00;99.90;;;;;;4971020;28;20479;-76
2023/10/07 15:48:45;;;;;;;1.53;0.87;;;21.00;99.90;;;;;;4973409;28;20955;-76
2023/10/07 15:51:13;;;;;;;0.70;0.60;;;20.80;97.90;;;;;;4981689;28;20457;-76
2023/10/07 15:53:44;;;;;;;0.97;0.63;;;20.80;99.90;;;;;;4987992;28;20983;-76
2023/10/07 15:56:17;;;;;;;0.60;0.10;;;;;;;;;;4976811;28;20458;-76
2023/10/07 15:58:46;;;;;;;2.00;0.93;;;20.70;98.20;;;;;;4985416;28;20890;-76
2023/10/07 16:01:14;;;;;;;0.60;0.10;;;20.70;99.30;;;;;;4974516;28;20449;-75
2023/10/07 16:03:42;;;;;;;0.60;0.10;;;20.70;99.90;;;;;;4972986;28;20454;-76
2023/10/07 16:06:14;;;;;;;0.60;0.20;;;20.10;99.90;;;;;;4972973;28;20612;-75
2023/10/07 16:08:44;;;;;;;0.60;0.10;;;20.70;99.90;;;;;;4979788;28;20500;-75
2023/10/07 16:11:21;;;;;;;0.60;0.10;;;20.70;99.90;;;;;;4990632;28;20816;-75
2023/10/07 16:13:50;;;;;;;0.60;0.10;;;20.70;99.90;;;;;;4974296;28;20450;-75
2023/10/07 16:16:19;;;;;;;0.60;0.10;;;20.60;99.90;;;;;;4964612;28;20450;-77
2023/10/07 16:18:47;;;;;;;0.60;0.10;;;20.50;99.90;;;;;;4968782;28;20932;-75
2023/10/07 16:21:16;;;;;;;0.60;0.10;;;20.50;99.90;;;;;;4975104;28;20442;-76
2023/10/07 16:23:45;;;;;;;0.70;0.27;;;20.50;99.90;;;;;;4978803;28;20442;-75
2023/10/07 16:26:14;;;;;;;0.60;0.10;;;20.50;99.90;;;;;;4973545;28;20681;-75
2023/10/07 16:28:44;;;;;;;0.60;0.10;;;20.40;99.90;;;;;;4978746;28;20541;-79
2023/10/07 16:31:13;;;;;;;0.60;0.20;;;20.30;99.90;;;;;;4975659;28;20537;-74
2023/10/07 16:33:41;;;;;;;0.60;0.20;;;20.40;99.90;;;;;;5030698;23;20508;-70
2023/10/07 16:36:10;;;;;;;0.60;0.17;;;20.30;99.90;;;;;;4975530;28;20466;-71
2023/10/07 16:38:40;;;;;;;0.70;0.37;;;20.20;99.90;;;;;;4979143;28;20520;-71
2023/10/07 16:41:11;;;;;;;0.70;0.40;;;20.20;99.90;;;;;;4975571;28;20451;-70
2023/10/07 16:43:39;;;;;;;0.60;0.10;;;20.10;99.90;;;;;;4974872;28;20472;-70
2023/10/07 16:46:09;;;;;;;1.70;1.30;;;20.00;99.90;;;;;;4979248;28;20845;-69
2023/10/07 16:48:40;;;;;;;1.67;0.97;;;19.90;99.90;;;;;;4979660;28;20455;-69
2023/10/07 16:51:09;;;;;;;0.60;0.10;;;19.90;99.90;;;;;;4965565;28;20443;-71
2023/10/07 16:53:38;;;;;;;5.20;0.73;;;19.80;99.90;;;;;;4973355;28;20476;-72
2023/10/07 16:56:08;;;;;;;1.23;0.37;;;19.80;99.90;;;;;;4982009;28;20542;-74
2023/10/07 16:58:37;;;;;;;2.87;2.57;;;19.80;99.90;;;;;;4968236;28;20457;-72
2023/10/07 17:01:10;;;;;;;0.83;0.33;;;19.70;99.90;;;;;;4977663;28;20526;-70
2023/10/07 17:03:38;;;;;;;2.53;1.50;;;19.80;99.90;;;;;;4969570;28;20463;-72
2023/10/07 17:06:08;;;;;;;0.70;0.30;;;19.70;99.90;;;;;;4982924;28;20449;-70
2023/10/07 17:08:37;;;;;;;4.50;1.70;;;19.80;99.90;;;;;;4966773;28;20967;-72
2023/10/07 17:11:06;;;;;;;0.60;0.30;;;19.80;99.90;;;;;;4973695;28;20500;-71
2023/10/07 17:13:34;;;;;;;1.93;1.03;;;19.80;99.90;;;;;;4974320;28;20554;-70
2023/10/07 17:16:03;;;;;;;1.90;0.80;;;19.80;99.90;;;;;;4982208;28;20445;-72